sensor_id;sensor_type;location;lat;lon;timestamp;P1;durP1;ratioP1;P2;durP2;ratioP2
68479;SDS011;55469;48.934;12.050;2023-03-14T00:01:09;1.85;;;1.50;;
68479;SDS011;55469;48.934;12.050;2023-03-14T00:03:41;1.60;;;1.42;;
68479;SDS011;55469;48.934;12.050;2023-03-14T00:06:07;2.25;;;1.83;;
68479;SDS011;55469;48.934;12.050;2023-03-14T00:08:33;1.85;;;1.50;;
68479;SDS011;55469;48.934;12.050;2023-03-14T00:11:04;1.85;;;1.55;;
68479;SDS011;55469;48.934;12.050;2023-03-14T00:13:34;1.77;;;1.40;;
68479;SDS011;55469;48.934;12.050;2023-03-14T00:16:01;2.22;;;1.52;;
68479;SDS011;55469;48.934;12.050;2023-03-14T00:18:32;1.40;;;1.30;;
68479;SDS011;55469;48.934;12.050;2023-03-14T00:20:58;2.20;;;1.75;;
68479;SDS011;55469;48.934;12.050;2023-03-14T00:23:26;2.00;;;1.33;;
68479;SDS011;55469;48.934;12.050;2023-03-14T00:25:53;1.73;;;1.50;;
68479;SDS011;55469;48.934;12.050;2023-03-14T00:28:26;1.63;;;1.52;;
68479;SDS011;55469;48.934;12.050;2023-03-14T00:30:52;1.80;;;1.40;;
68479;SDS011;55469;48.934;12.050;2023-03-14T00:33:18;1.98;;;1.50;;
68479;SDS011;55469;48.934;12.050;2023-03-14T00:35:51;2.08;;;1.42;;
68479;SDS011;55469;48.934;12.050;2023-03-14T00:38:30;2.72;;;1.70;;
68479;SDS011;55469;48.934;12.050;2023-03-14T00:40:57;1.42;;;1.33;;
68479;SDS011;55469;48.934;12.050;2023-03-14T00:43:23;1.40;;;1.30;;
68479;SDS011;55469;48.934;12.050;2023-03-14T00:45:50;1.48;;;1.30;;
68479;SDS011;55469;48.934;12.050;2023-03-14T00:48:18;1.55;;;1.40;;
68479;SDS011;55469;48.934;12.050;2023-03-14T00:50:45;2.90;;;1.42;;
68479;SDS011;55469;48.934;12.050;2023-03-14T00:53:11;1.40;;;1.30;;
68479;SDS011;55469;48.934;12.050;2023-03-14T00:55:38;1.67;;;1.58;;
68479;SDS011;55469;48.934;12.050;2023-03-14T00:58:05;1.45;;;1.35;;
68479;SDS011;55469;48.934;12.050;2023-03-14T01:00:31;1.40;;;1.30;;
68479;SDS011;55469;48.934;12.050;2023-03-14T01:02:57;1.65;;;1.23;;
68479;SDS011;55469;48.934;12.050;2023-03-14T01:05:23;1.52;;;1.40;;
68479;SDS011;55469;48.934;12.050;2023-03-14T01:07:49;1.30;;;1.20;;
68479;SDS011;55469;48.934;12.050;2023-03-14T01:10:15;1.33;;;1.23;;
68479;SDS011;55469;48.934;12.050;2023-03-14T01:12:41;1.92;;;1.40;;
68479;SDS011;55469;48.934;12.050;2023-03-14T01:15:07;1.20;;;1.10;;
68479;SDS011;55469;48.934;12.050;2023-03-14T01:17:34;1.08;;;0.93;;
68479;SDS011;55469;48.934;12.050;2023-03-14T01:20:00;1.23;;;1.10;;
68479;SDS011;55469;48.934;12.050;2023-03-14T01:22:26;1.85;;;1.42;;
68479;SDS011;55469;48.934;12.050;2023-03-14T01:24:52;2.30;;;1.30;;
68479;SDS011;55469;48.934;12.050;2023-03-14T01:27:17;1.30;;;1.20;;
68479;SDS011;55469;48.934;12.050;2023-03-14T01:29:43;1.23;;;1.13;;
68479;SDS011;55469;48.934;12.050;2023-03-14T01:32:09;0.95;;;0.90;;
68479;SDS011;55469;48.934;12.050;2023-03-14T01:34:35;1.15;;;1.05;;
68479;SDS011;55469;48.934;12.050;2023-03-14T01:37:00;1.20;;;1.10;;
68479;SDS011;55469;48.934;12.050;2023-03-14T01:39:26;1.40;;;1.20;;
68479;SDS011;55469;48.934;12.050;2023-03-14T01:41:53;1.27;;;1.10;;
68479;SDS011;55469;48.934;12.050;2023-03-14T01:44:19;1.30;;;1.20;;
68479;SDS011;55469;48.934;12.050;2023-03-14T01:46:45;1.27;;;1.17;;
68479;SDS011;55469;48.934;12.050;2023-03-14T01:49:15;1.08;;;0.98;;
68479;SDS011;55469;48.934;12.050;2023-03-14T01:54:31;1.00;;;1.00;;
68479;SDS011;55469;48.934;12.050;2023-03-14T01:57:08;1.10;;;1.00;;
68479;SDS011;55469;48.934;12.050;2023-03-14T01:59:40;1.38;;;1.00;;
68479;SDS011;55469;48.934;12.050;2023-03-14T02:02:12;1.25;;;1.10;;
68479;SDS011;55469;48.934;12.050;2023-03-14T02:04:39;2.67;;;1.00;;
68479;SDS011;55469;48.934;12.050;2023-03-14T02:07:10;1.00;;;0.90;;
68479;SDS011;55469;48.934;12.050;2023-03-14T02:09:44;1.00;;;0.90;;
68479;SDS011;55469;48.934;12.050;2023-03-14T02:12:11;1.48;;;1.10;;
68479;SDS011;55469;48.934;12.050;2023-03-14T02:14:40;0.80;;;0.80;;
68479;SDS011;55469;48.934;12.050;2023-03-14T02:17:11;0.80;;;0.80;;
68479;SDS011;55469;48.934;12.050;2023-03-14T02:19:44;1.10;;;1.00;;
68479;SDS011;55469;48.934;12.050;2023-03-14T02:22:14;1.00;;;0.95;;
68479;SDS011;55469;48.934;12.050;2023-03-14T02:27:21;1.58;;;0.77;;
68479;SDS011;55469;48.934;12.050;2023-03-14T02:30:00;0.77;;;0.75;;
68479;SDS011;55469;48.934;12.050;2023-03-14T02:32:29;1.13;;;1.02;;
68479;SDS011;55469;48.934;12.050;2023-03-14T02:34:58;0.60;;;0.60;;
68479;SDS011;55469;48.934;12.050;2023-03-14T02:37:32;0.70;;;0.70;;
68479;SDS011;55469;48.934;12.050;2023-03-14T02:40:23;1.25;;;0.80;;
68479;SDS011;55469;48.934;12.050;2023-03-14T02:42:49;1.10;;;1.00;;
68479;SDS011;55469;48.934;12.050;2023-03-14T02:47:44;1.05;;;0.80;;
68479;SDS011;55469;48.934;12.050;2023-03-14T02:50:19;0.73;;;0.73;;
68479;SDS011;55469;48.934;12.050;2023-03-14T02:52:48;0.70;;;0.70;;
68479;SDS011;55469;48.934;12.050;2023-03-14T02:55:14;0.75;;;0.75;;
68479;SDS011;55469;48.934;12.050;2023-03-14T02:57:39;0.80;;;0.80;;
68479;SDS011;55469;48.934;12.050;2023-03-14T03:00:05;1.67;;;0.82;;
68479;SDS011;55469;48.934;12.050;2023-03-14T03:02:33;0.75;;;0.60;;
68479;SDS011;55469;48.934;12.050;2023-03-14T03:04:58;0.70;;;0.70;;
68479;SDS011;55469;48.934;12.050;2023-03-14T03:07:24;0.80;;;0.80;;
68479;SDS011;55469;48.934;12.050;2023-03-14T03:09:50;1.33;;;0.80;;
68479;SDS011;55469;48.934;12.050;2023-03-14T03:12:16;0.50;;;0.50;;
68479;SDS011;55469;48.934;12.050;2023-03-14T03:14:41;0.65;;;0.55;;
68479;SDS011;55469;48.934;12.050;2023-03-14T03:17:07;0.70;;;0.70;;
68479;SDS011;55469;48.934;12.050;2023-03-14T03:19:33;0.80;;;0.60;;
68479;SDS011;55469;48.934;12.050;2023-03-14T03:21:59;1.35;;;0.80;;
68479;SDS011;55469;48.934;12.050;2023-03-14T03:24:25;0.70;;;0.70;;
68479;SDS011;55469;48.934;12.050;2023-03-14T03:26:54;0.50;;;0.50;;
68479;SDS011;55469;48.934;12.050;2023-03-14T03:29:20;0.68;;;0.68;;
68479;SDS011;55469;48.934;12.050;2023-03-14T03:31:46;1.85;;;0.70;;
68479;SDS011;55469;48.934;12.050;2023-03-14T03:34:12;1.95;;;0.60;;
68479;SDS011;55469;48.934;12.050;2023-03-14T03:36:38;0.60;;;0.60;;
68479;SDS011;55469;48.934;12.050;2023-03-14T03:39:05;0.60;;;0.60;;
68479;SDS011;55469;48.934;12.050;2023-03-14T03:41:31;0.50;;;0.50;;
68479;SDS011;55469;48.934;12.050;2023-03-14T03:43:57;1.83;;;0.70;;
68479;SDS011;55469;48.934;12.050;2023-03-14T03:46:23;0.63;;;0.60;;
68479;SDS011;55469;48.934;12.050;2023-03-14T03:48:53;0.70;;;0.70;;
68479;SDS011;55469;48.934;12.050;2023-03-14T03:51:22;0.73;;;0.50;;
68479;SDS011;55469;48.934;12.050;2023-03-14T03:53:49;0.68;;;0.50;;
68479;SDS011;55469;48.934;12.050;2023-03-14T03:56:14;0.73;;;0.57;;
68479;SDS011;55469;48.934;12.050;2023-03-14T03:58:40;0.60;;;0.60;;
68479;SDS011;55469;48.934;12.050;2023-03-14T04:01:07;0.68;;;0.50;;
68479;SDS011;55469;48.934;12.050;2023-03-14T04:03:34;0.50;;;0.50;;
68479;SDS011;55469;48.934;12.050;2023-03-14T04:06:01;0.52;;;0.52;;
68479;SDS011;55469;48.934;12.050;2023-03-14T04:08:30;1.95;;;0.52;;
68479;SDS011;55469;48.934;12.050;2023-03-14T04:10:56;0.40;;;0.40;;
68479;SDS011;55469;48.934;12.050;2023-03-14T04:13:24;0.55;;;0.52;;
68479;SDS011;55469;48.934;12.050;2023-03-14T04:15:51;0.85;;;0.50;;
68479;SDS011;55469;48.934;12.050;2023-03-14T04:18:17;0.50;;;0.50;;
68479;SDS011;55469;48.934;12.050;2023-03-14T04:20:43;0.77;;;0.50;;
68479;SDS011;55469;48.934;12.050;2023-03-14T04:23:09;0.30;;;0.30;;
68479;SDS011;55469;48.934;12.050;2023-03-14T04:25:35;0.73;;;0.40;;
68479;SDS011;55469;48.934;12.050;2023-03-14T04:28:01;0.63;;;0.40;;
68479;SDS011;55469;48.934;12.050;2023-03-14T04:30:29;0.70;;;0.50;;
68479;SDS011;55469;48.934;12.050;2023-03-14T04:32:54;1.35;;;0.50;;
68479;SDS011;55469;48.934;12.050;2023-03-14T04:35:20;0.50;;;0.50;;
68479;SDS011;55469;48.934;12.050;2023-03-14T04:37:46;0.45;;;0.45;;
68479;SDS011;55469;48.934;12.050;2023-03-14T04:40:14;0.55;;;0.55;;
68479;SDS011;55469;48.934;12.050;2023-03-14T04:42:40;0.60;;;0.50;;
68479;SDS011;55469;48.934;12.050;2023-03-14T04:45:06;0.47;;;0.40;;
68479;SDS011;55469;48.934;12.050;2023-03-14T04:47:33;0.47;;;0.47;;
68479;SDS011;55469;48.934;12.050;2023-03-14T04:49:59;0.52;;;0.52;;
68479;SDS011;55469;48.934;12.050;2023-03-14T04:52:25;0.40;;;0.40;;
68479;SDS011;55469;48.934;12.050;2023-03-14T04:54:51;0.50;;;0.50;;
68479;SDS011;55469;48.934;12.050;2023-03-14T04:57:17;0.43;;;0.43;;
68479;SDS011;55469;48.934;12.050;2023-03-14T04:59:43;0.45;;;0.45;;
68479;SDS011;55469;48.934;12.050;2023-03-14T05:02:08;0.82;;;0.68;;
68479;SDS011;55469;48.934;12.050;2023-03-14T05:04:34;0.40;;;0.40;;
68479;SDS011;55469;48.934;12.050;2023-03-14T05:07:00;0.55;;;0.50;;
68479;SDS011;55469;48.934;12.050;2023-03-14T05:09:26;0.60;;;0.60;;
68479;SDS011;55469;48.934;12.050;2023-03-14T05:11:52;0.40;;;0.40;;
68479;SDS011;55469;48.934;12.050;2023-03-14T05:14:18;0.40;;;0.40;;
68479;SDS011;55469;48.934;12.050;2023-03-14T05:16:44;0.50;;;0.50;;
68479;SDS011;55469;48.934;12.050;2023-03-14T05:19:10;0.30;;;0.30;;
68479;SDS011;55469;48.934;12.050;2023-03-14T05:21:36;0.40;;;0.40;;
68479;SDS011;55469;48.934;12.050;2023-03-14T05:24:02;0.50;;;0.50;;
68479;SDS011;55469;48.934;12.050;2023-03-14T05:26:28;0.43;;;0.43;;
68479;SDS011;55469;48.934;12.050;2023-03-14T05:28:54;0.40;;;0.40;;
68479;SDS011;55469;48.934;12.050;2023-03-14T05:31:20;0.40;;;0.40;;
68479;SDS011;55469;48.934;12.050;2023-03-14T05:33:46;0.40;;;0.40;;
68479;SDS011;55469;48.934;12.050;2023-03-14T05:36:12;0.30;;;0.30;;
68479;SDS011;55469;48.934;12.050;2023-03-14T05:38:37;0.52;;;0.50;;
68479;SDS011;55469;48.934;12.050;2023-03-14T05:41:03;0.30;;;0.30;;
68479;SDS011;55469;48.934;12.050;2023-03-14T05:43:29;0.43;;;0.43;;
68479;SDS011;55469;48.934;12.050;2023-03-14T05:45:55;0.30;;;0.30;;
68479;SDS011;55469;48.934;12.050;2023-03-14T05:48:21;0.45;;;0.45;;
68479;SDS011;55469;48.934;12.050;2023-03-14T05:50:46;0.50;;;0.50;;
68479;SDS011;55469;48.934;12.050;2023-03-14T05:53:13;0.35;;;0.35;;
68479;SDS011;55469;48.934;12.050;2023-03-14T05:55:39;0.40;;;0.40;;
68479;SDS011;55469;48.934;12.050;2023-03-14T05:58:05;0.43;;;0.43;;
68479;SDS011;55469;48.934;12.050;2023-03-14T06:00:31;0.50;;;0.50;;
68479;SDS011;55469;48.934;12.050;2023-03-14T06:02:57;0.40;;;0.40;;
68479;SDS011;55469;48.934;12.050;2023-03-14T06:05:23;0.60;;;0.60;;
68479;SDS011;55469;48.934;12.050;2023-03-14T06:07:49;0.60;;;0.50;;
68479;SDS011;55469;48.934;12.050;2023-03-14T06:10:14;0.40;;;0.40;;
68479;SDS011;55469;48.934;12.050;2023-03-14T06:12:40;0.30;;;0.30;;
68479;SDS011;55469;48.934;12.050;2023-03-14T06:15:06;0.40;;;0.40;;
68479;SDS011;55469;48.934;12.050;2023-03-14T06:17:32;0.50;;;0.50;;
68479;SDS011;55469;48.934;12.050;2023-03-14T06:19:58;0.43;;;0.40;;
68479;SDS011;55469;48.934;12.050;2023-03-14T06:22:24;0.77;;;0.43;;
68479;SDS011;55469;48.934;12.050;2023-03-14T06:24:49;0.73;;;0.50;;
68479;SDS011;55469;48.934;12.050;2023-03-14T06:27:15;0.43;;;0.43;;
68479;SDS011;55469;48.934;12.050;2023-03-14T06:29:41;0.30;;;0.30;;
68479;SDS011;55469;48.934;12.050;2023-03-14T06:32:07;0.40;;;0.32;;
68479;SDS011;55469;48.934;12.050;2023-03-14T06:34:32;0.35;;;0.35;;
68479;SDS011;55469;48.934;12.050;2023-03-14T06:36:58;0.40;;;0.40;;
68479;SDS011;55469;48.934;12.050;2023-03-14T06:39:24;0.47;;;0.47;;
68479;SDS011;55469;48.934;12.050;2023-03-14T06:41:50;0.55;;;0.32;;
68479;SDS011;55469;48.934;12.050;2023-03-14T06:44:15;0.40;;;0.40;;
68479;SDS011;55469;48.934;12.050;2023-03-14T06:46:41;0.47;;;0.47;;
68479;SDS011;55469;48.934;12.050;2023-03-14T06:49:13;0.30;;;0.30;;
68479;SDS011;55469;48.934;12.050;2023-03-14T06:51:39;0.50;;;0.40;;
68479;SDS011;55469;48.934;12.050;2023-03-14T06:54:04;0.30;;;0.30;;
68479;SDS011;55469;48.934;12.050;2023-03-14T06:56:30;0.40;;;0.40;;
68479;SDS011;55469;48.934;12.050;2023-03-14T06:58:56;0.30;;;0.30;;
68479;SDS011;55469;48.934;12.050;2023-03-14T07:01:25;0.40;;;0.40;;
68479;SDS011;55469;48.934;12.050;2023-03-14T07:03:54;0.40;;;0.20;;
68479;SDS011;55469;48.934;12.050;2023-03-14T07:06:19;0.30;;;0.30;;
68479;SDS011;55469;48.934;12.050;2023-03-14T07:08:46;0.40;;;0.40;;
68479;SDS011;55469;48.934;12.050;2023-03-14T07:11:11;0.40;;;0.40;;
68479;SDS011;55469;48.934;12.050;2023-03-14T07:13:37;0.57;;;0.40;;
68479;SDS011;55469;48.934;12.050;2023-03-14T07:16:04;0.38;;;0.38;;
68479;SDS011;55469;48.934;12.050;2023-03-14T07:18:31;0.60;;;0.60;;
68479;SDS011;55469;48.934;12.050;2023-03-14T07:20:56;0.30;;;0.30;;
68479;SDS011;55469;48.934;12.050;2023-03-14T07:23:22;0.40;;;0.40;;
68479;SDS011;55469;48.934;12.050;2023-03-14T07:25:48;0.20;;;0.20;;
68479;SDS011;55469;48.934;12.050;2023-03-14T07:28:13;0.30;;;0.30;;
68479;SDS011;55469;48.934;12.050;2023-03-14T07:30:39;0.40;;;0.30;;
68479;SDS011;55469;48.934;12.050;2023-03-14T07:33:05;0.40;;;0.40;;
68479;SDS011;55469;48.934;12.050;2023-03-14T07:35:30;0.20;;;0.20;;
68479;SDS011;55469;48.934;12.050;2023-03-14T07:37:56;0.35;;;0.35;;
68479;SDS011;55469;48.934;12.050;2023-03-14T07:40:22;0.40;;;0.40;;
68479;SDS011;55469;48.934;12.050;2023-03-14T07:42:47;0.50;;;0.40;;
68479;SDS011;55469;48.934;12.050;2023-03-14T07:45:14;0.77;;;0.30;;
68479;SDS011;55469;48.934;12.050;2023-03-14T07:47:40;0.43;;;0.43;;
68479;SDS011;55469;48.934;12.050;2023-03-14T07:50:06;0.40;;;0.40;;
68479;SDS011;55469;48.934;12.050;2023-03-14T07:52:32;0.20;;;0.20;;
68479;SDS011;55469;48.934;12.050;2023-03-14T07:54:58;0.30;;;0.30;;
68479;SDS011;55469;48.934;12.050;2023-03-14T07:57:24;0.30;;;0.30;;
68479;SDS011;55469;48.934;12.050;2023-03-14T07:59:49;0.40;;;0.32;;
68479;SDS011;55469;48.934;12.050;2023-03-14T08:02:15;0.22;;;0.22;;
68479;SDS011;55469;48.934;12.050;2023-03-14T08:04:42;0.40;;;0.40;;
68479;SDS011;55469;48.934;12.050;2023-03-14T08:07:08;0.40;;;0.40;;
68479;SDS011;55469;48.934;12.050;2023-03-14T08:09:34;0.45;;;0.45;;
68479;SDS011;55469;48.934;12.050;2023-03-14T08:12:00;0.38;;;0.38;;
68479;SDS011;55469;48.934;12.050;2023-03-14T08:14:25;0.35;;;0.35;;
68479;SDS011;55469;48.934;12.050;2023-03-14T08:16:51;0.20;;;0.20;;
68479;SDS011;55469;48.934;12.050;2023-03-14T08:19:17;0.40;;;0.40;;
68479;SDS011;55469;48.934;12.050;2023-03-14T08:21:43;0.30;;;0.30;;
68479;SDS011;55469;48.934;12.050;2023-03-14T08:24:09;0.40;;;0.25;;
68479;SDS011;55469;48.934;12.050;2023-03-14T08:26:34;0.40;;;0.40;;
68479;SDS011;55469;48.934;12.050;2023-03-14T08:29:00;0.40;;;0.40;;
68479;SDS011;55469;48.934;12.050;2023-03-14T08:31:26;1.58;;;0.40;;
68479;SDS011;55469;48.934;12.050;2023-03-14T08:33:52;0.82;;;0.30;;
68479;SDS011;55469;48.934;12.050;2023-03-14T08:36:18;0.30;;;0.30;;
68479;SDS011;55469;48.934;12.050;2023-03-14T08:38:44;0.52;;;0.40;;
68479;SDS011;55469;48.934;12.050;2023-03-14T08:41:10;0.20;;;0.20;;
68479;SDS011;55469;48.934;12.050;2023-03-14T08:43:36;0.30;;;0.30;;
68479;SDS011;55469;48.934;12.050;2023-03-14T08:46:02;0.30;;;0.30;;
68479;SDS011;55469;48.934;12.050;2023-03-14T08:48:29;0.30;;;0.30;;
68479;SDS011;55469;48.934;12.050;2023-03-14T08:50:56;0.20;;;0.20;;
68479;SDS011;55469;48.934;12.050;2023-03-14T08:53:28;0.20;;;0.20;;
68479;SDS011;55469;48.934;12.050;2023-03-14T08:55:54;0.57;;;0.30;;
68479;SDS011;55469;48.934;12.050;2023-03-14T08:58:20;0.28;;;0.28;;
68479;SDS011;55469;48.934;12.050;2023-03-14T09:00:47;0.20;;;0.20;;
68479;SDS011;55469;48.934;12.050;2023-03-14T09:03:13;0.20;;;0.20;;
68479;SDS011;55469;48.934;12.050;2023-03-14T09:05:39;0.30;;;0.30;;
68479;SDS011;55469;48.934;12.050;2023-03-14T09:08:05;0.28;;;0.28;;
68479;SDS011;55469;48.934;12.050;2023-03-14T09:10:31;0.47;;;0.38;;
68479;SDS011;55469;48.934;12.050;2023-03-14T09:12:56;1.02;;;0.50;;
68479;SDS011;55469;48.934;12.050;2023-03-14T09:15:23;0.40;;;0.30;;
68479;SDS011;55469;48.934;12.050;2023-03-14T09:17:49;1.17;;;0.30;;
68479;SDS011;55469;48.934;12.050;2023-03-14T09:20:15;0.30;;;0.30;;
68479;SDS011;55469;48.934;12.050;2023-03-14T09:22:41;0.30;;;0.30;;
68479;SDS011;55469;48.934;12.050;2023-03-14T09:25:07;0.75;;;0.40;;
68479;SDS011;55469;48.934;12.050;2023-03-14T09:27:33;0.38;;;0.20;;
68479;SDS011;55469;48.934;12.050;2023-03-14T09:29:59;0.40;;;0.40;;
68479;SDS011;55469;48.934;12.050;2023-03-14T09:32:24;0.40;;;0.40;;
68479;SDS011;55469;48.934;12.050;2023-03-14T09:34:50;0.50;;;0.50;;
68479;SDS011;55469;48.934;12.050;2023-03-14T09:37:16;0.50;;;0.43;;
68479;SDS011;55469;48.934;12.050;2023-03-14T09:39:42;0.50;;;0.40;;
68479;SDS011;55469;48.934;12.050;2023-03-14T09:42:10;0.50;;;0.50;;
68479;SDS011;55469;48.934;12.050;2023-03-14T09:47:19;1.10;;;0.50;;
68479;SDS011;55469;48.934;12.050;2023-03-14T09:49:47;0.82;;;0.43;;
68479;SDS011;55469;48.934;12.050;2023-03-14T09:52:14;0.35;;;0.35;;
68479;SDS011;55469;48.934;12.050;2023-03-14T09:54:58;0.30;;;0.30;;
68479;SDS011;55469;48.934;12.050;2023-03-14T09:57:28;0.47;;;0.43;;
68479;SDS011;55469;48.934;12.050;2023-03-14T09:59:58;0.30;;;0.30;;
68479;SDS011;55469;48.934;12.050;2023-03-14T10:02:39;0.63;;;0.28;;
68479;SDS011;55469;48.934;12.050;2023-03-14T10:05:15;0.40;;;0.40;;
68479;SDS011;55469;48.934;12.050;2023-03-14T10:07:46;1.48;;;0.40;;
68479;SDS011;55469;48.934;12.050;2023-03-14T10:10:13;0.65;;;0.38;;
68479;SDS011;55469;48.934;12.050;2023-03-14T10:15:28;0.70;;;0.40;;
68479;SDS011;55469;48.934;12.050;2023-03-14T10:17:59;0.90;;;0.47;;
68479;SDS011;55469;48.934;12.050;2023-03-14T10:20:40;1.23;;;0.40;;
68479;SDS011;55469;48.934;12.050;2023-03-14T10:25:38;0.55;;;0.45;;
68479;SDS011;55469;48.934;12.050;2023-03-14T10:28:10;0.80;;;0.50;;
68479;SDS011;55469;48.934;12.050;2023-03-14T10:30:51;0.38;;;0.38;;
68479;SDS011;55469;48.934;12.050;2023-03-14T10:35:43;0.40;;;0.40;;
68479;SDS011;55469;48.934;12.050;2023-03-14T10:38:14;0.63;;;0.40;;
68479;SDS011;55469;48.934;12.050;2023-03-14T10:40:46;0.30;;;0.30;;
68479;SDS011;55469;48.934;12.050;2023-03-14T10:43:16;0.40;;;0.40;;
68479;SDS011;55469;48.934;12.050;2023-03-14T10:45:53;0.77;;;0.40;;
68479;SDS011;55469;48.934;12.050;2023-03-14T10:53:50;0.70;;;0.40;;
68479;SDS011;55469;48.934;12.050;2023-03-14T10:56:59;1.33;;;0.30;;
68479;SDS011;55469;48.934;12.050;2023-03-14T10:59:33;0.30;;;0.30;;
68479;SDS011;55469;48.934;12.050;2023-03-14T11:02:22;0.40;;;0.40;;
68479;SDS011;55469;48.934;12.050;2023-03-14T11:05:31;0.30;;;0.30;;
68479;SDS011;55469;48.934;12.050;2023-03-14T11:16:26;1.23;;;0.57;;
68479;SDS011;55469;48.934;12.050;2023-03-14T11:22:25;0.30;;;0.30;;
68479;SDS011;55469;48.934;12.050;2023-03-14T11:25:13;0.47;;;0.30;;
68479;SDS011;55469;48.934;12.050;2023-03-14T11:28:13;0.30;;;0.30;;
68479;SDS011;55469;48.934;12.050;2023-03-14T11:31:14;0.40;;;0.40;;
68479;SDS011;55469;48.934;12.050;2023-03-14T11:39:48;2.55;;;0.40;;
68479;SDS011;55469;48.934;12.050;2023-03-14T11:42:46;0.57;;;0.40;;
68479;SDS011;55469;48.934;12.050;2023-03-14T11:45:41;0.30;;;0.30;;
68479;SDS011;55469;48.934;12.050;2023-03-14T11:48:22;0.35;;;0.35;;
68479;SDS011;55469;48.934;12.050;2023-03-14T11:51:02;0.30;;;0.30;;
68479;SDS011;55469;48.934;12.050;2023-03-14T11:53:36;0.40;;;0.32;;
68479;SDS011;55469;48.934;12.050;2023-03-14T11:56:31;0.40;;;0.30;;
68479;SDS011;55469;48.934;12.050;2023-03-14T11:59:04;0.40;;;0.40;;
68479;SDS011;55469;48.934;12.050;2023-03-14T12:01:44;0.28;;;0.25;;
68479;SDS011;55469;48.934;12.050;2023-03-14T12:04:37;0.35;;;0.30;;
68479;SDS011;55469;48.934;12.050;2023-03-14T12:07:12;0.50;;;0.50;;
68479;SDS011;55469;48.934;12.050;2023-03-14T12:09:48;0.40;;;0.40;;
68479;SDS011;55469;48.934;12.050;2023-03-14T12:12:18;0.35;;;0.35;;
68479;SDS011;55469;48.934;12.050;2023-03-14T12:15:21;0.38;;;0.38;;
68479;SDS011;55469;48.934;12.050;2023-03-14T12:17:45;0.30;;;0.30;;
68479;SDS011;55469;48.934;12.050;2023-03-14T12:20:20;0.52;;;0.30;;
68479;SDS011;55469;48.934;12.050;2023-03-14T12:22:50;0.50;;;0.40;;
68479;SDS011;55469;48.934;12.050;2023-03-14T12:25:20;1.10;;;0.30;;
68479;SDS011;55469;48.934;12.050;2023-03-14T12:35:38;0.40;;;0.40;;
68479;SDS011;55469;48.934;12.050;2023-03-14T12:38:12;1.52;;;0.40;;
68479;SDS011;55469;48.934;12.050;2023-03-14T12:43:40;0.57;;;0.50;;
68479;SDS011;55469;48.934;12.050;2023-03-14T12:46:07;0.63;;;0.60;;
68479;SDS011;55469;48.934;12.050;2023-03-14T12:48:43;0.75;;;0.40;;
68479;SDS011;55469;48.934;12.050;2023-03-14T12:51:20;0.85;;;0.60;;
68479;SDS011;55469;48.934;12.050;2023-03-14T12:54:17;0.45;;;0.40;;
68479;SDS011;55469;48.934;12.050;2023-03-14T13:02:47;0.80;;;0.43;;
68479;SDS011;55469;48.934;12.050;2023-03-14T13:12:56;0.32;;;0.30;;
68479;SDS011;55469;48.934;12.050;2023-03-14T13:15:40;0.52;;;0.38;;
68479;SDS011;55469;48.934;12.050;2023-03-14T13:18:10;0.55;;;0.40;;
68479;SDS011;55469;48.934;12.050;2023-03-14T13:20:53;0.50;;;0.50;;
68479;SDS011;55469;48.934;12.050;2023-03-14T13:23:34;0.30;;;0.30;;
68479;SDS011;55469;48.934;12.050;2023-03-14T13:26:02;0.30;;;0.30;;
68479;SDS011;55469;48.934;12.050;2023-03-14T13:28:29;0.63;;;0.30;;
68479;SDS011;55469;48.934;12.050;2023-03-14T13:30:57;0.40;;;0.40;;
68479;SDS011;55469;48.934;12.050;2023-03-14T13:33:25;0.63;;;0.45;;
68479;SDS011;55469;48.934;12.050;2023-03-14T13:35:55;0.40;;;0.40;;
68479;SDS011;55469;48.934;12.050;2023-03-14T13:38:24;0.50;;;0.40;;
68479;SDS011;55469;48.934;12.050;2023-03-14T13:40:56;0.50;;;0.30;;
68479;SDS011;55469;48.934;12.050;2023-03-14T13:48:36;1.10;;;0.45;;
68479;SDS011;55469;48.934;12.050;2023-03-14T13:53:43;0.60;;;0.50;;
68479;SDS011;55469;48.934;12.050;2023-03-14T13:56:11;0.40;;;0.40;;
68479;SDS011;55469;48.934;12.050;2023-03-14T13:58:38;0.55;;;0.30;;
68479;SDS011;55469;48.934;12.050;2023-03-14T14:04:08;0.45;;;0.30;;
68479;SDS011;55469;48.934;12.050;2023-03-14T14:06:44;0.40;;;0.40;;
68479;SDS011;55469;48.934;12.050;2023-03-14T14:09:16;0.40;;;0.40;;
68479;SDS011;55469;48.934;12.050;2023-03-14T14:14:47;0.43;;;0.40;;
68479;SDS011;55469;48.934;12.050;2023-03-14T14:17:24;0.65;;;0.40;;
68479;SDS011;55469;48.934;12.050;2023-03-14T14:20:01;0.63;;;0.30;;
68479;SDS011;55469;48.934;12.050;2023-03-14T14:22:30;0.60;;;0.45;;
68479;SDS011;55469;48.934;12.050;2023-03-14T14:24:57;1.05;;;0.35;;
68479;SDS011;55469;48.934;12.050;2023-03-14T14:27:24;0.30;;;0.30;;
68479;SDS011;55469;48.934;12.050;2023-03-14T14:30:06;0.30;;;0.30;;
68479;SDS011;55469;48.934;12.050;2023-03-14T14:32:51;0.45;;;0.45;;
68479;SDS011;55469;48.934;12.050;2023-03-14T14:35:24;0.25;;;0.25;;
68479;SDS011;55469;48.934;12.050;2023-03-14T14:37:56;0.38;;;0.30;;
68479;SDS011;55469;48.934;12.050;2023-03-14T14:40:23;0.73;;;0.40;;
68479;SDS011;55469;48.934;12.050;2023-03-14T14:42:52;0.30;;;0.30;;
68479;SDS011;55469;48.934;12.050;2023-03-14T14:45:19;0.60;;;0.30;;
68479;SDS011;55469;48.934;12.050;2023-03-14T14:47:57;0.30;;;0.30;;
68479;SDS011;55469;48.934;12.050;2023-03-14T14:50:31;0.32;;;0.32;;
68479;SDS011;55469;48.934;12.050;2023-03-14T14:53:13;0.30;;;0.30;;
68479;SDS011;55469;48.934;12.050;2023-03-14T14:56:19;1.27;;;0.40;;
68479;SDS011;55469;48.934;12.050;2023-03-14T14:58:55;0.22;;;0.22;;
68479;SDS011;55469;48.934;12.050;2023-03-14T15:01:30;0.75;;;0.32;;
68479;SDS011;55469;48.934;12.050;2023-03-14T15:04:11;1.02;;;0.40;;
68479;SDS011;55469;48.934;12.050;2023-03-14T15:06:40;0.45;;;0.32;;
68479;SDS011;55469;48.934;12.050;2023-03-14T15:09:12;0.40;;;0.40;;
68479;SDS011;55469;48.934;12.050;2023-03-14T15:11:38;1.23;;;0.70;;
68479;SDS011;55469;48.934;12.050;2023-03-14T15:14:03;0.80;;;0.50;;
68479;SDS011;55469;48.934;12.050;2023-03-14T15:16:29;0.82;;;0.40;;
68479;SDS011;55469;48.934;12.050;2023-03-14T15:19:01;0.40;;;0.40;;
68479;SDS011;55469;48.934;12.050;2023-03-14T15:21:44;1.67;;;0.43;;
68479;SDS011;55469;48.934;12.050;2023-03-14T15:24:10;0.88;;;0.50;;
68479;SDS011;55469;48.934;12.050;2023-03-14T15:26:35;2.22;;;0.50;;
68479;SDS011;55469;48.934;12.050;2023-03-14T15:29:01;0.65;;;0.40;;
68479;SDS011;55469;48.934;12.050;2023-03-14T15:31:27;0.85;;;0.35;;
68479;SDS011;55469;48.934;12.050;2023-03-14T15:33:53;0.40;;;0.40;;
68479;SDS011;55469;48.934;12.050;2023-03-14T15:36:22;0.32;;;0.32;;
68479;SDS011;55469;48.934;12.050;2023-03-14T15:38:52;0.47;;;0.45;;
68479;SDS011;55469;48.934;12.050;2023-03-14T15:41:19;0.65;;;0.60;;
68479;SDS011;55469;48.934;12.050;2023-03-14T15:43:46;0.60;;;0.60;;
68479;SDS011;55469;48.934;12.050;2023-03-14T15:46:13;0.68;;;0.57;;
68479;SDS011;55469;48.934;12.050;2023-03-14T15:48:39;0.40;;;0.30;;
68479;SDS011;55469;48.934;12.050;2023-03-14T15:51:06;0.77;;;0.40;;
68479;SDS011;55469;48.934;12.050;2023-03-14T15:53:32;0.47;;;0.47;;
68479;SDS011;55469;48.934;12.050;2023-03-14T15:56:01;0.80;;;0.52;;
68479;SDS011;55469;48.934;12.050;2023-03-14T15:58:31;0.60;;;0.60;;
68479;SDS011;55469;48.934;12.050;2023-03-14T16:00:59;0.93;;;0.68;;
68479;SDS011;55469;48.934;12.050;2023-03-14T16:03:26;0.57;;;0.50;;
68479;SDS011;55469;48.934;12.050;2023-03-14T16:05:53;1.25;;;0.65;;